createdAt,value
2022-11-18T00:00:40.404Z,93.28
2022-11-18T00:05:44.126Z,93.15
2022-11-18T00:10:47.332Z,93.12
2022-11-18T00:15:50.536Z,92.91
2022-11-18T00:20:53.753Z,92.62
2022-11-18T00:26:01.765Z,92.60
2022-11-18T00:31:08.967Z,92.45
2022-11-18T00:36:13.608Z,92.63
2022-11-18T00:41:16.819Z,92.66
2022-11-18T00:46:19.922Z,92.56
2022-11-18T00:51:23.130Z,92.60
2022-11-18T00:56:26.335Z,92.41
2022-11-18T01:01:29.818Z,92.36
2022-11-18T01:06:33.165Z,92.63
2022-11-18T01:11:55.108Z,92.73
2022-11-18T01:16:58.627Z,92.74
2022-11-18T01:22:03.557Z,92.58
2022-11-18T01:27:06.892Z,92.65
2022-11-18T01:32:24.484Z,92.63
2022-11-18T01:37:28.869Z,92.53
2022-11-18T01:42:32.584Z,92.70
2022-11-18T01:47:48.081Z,92.61
2022-11-18T01:52:52.701Z,92.58
2022-11-18T01:58:24.292Z,92.71
2022-11-18T02:03:28.012Z,92.82
2022-11-18T02:08:32.449Z,92.82
2022-11-18T02:13:35.561Z,93.05
2022-11-18T02:18:44.700Z,93.25
2022-11-18T02:24:15.558Z,93.73
2022-11-18T02:29:25.115Z,94.00
2022-11-18T02:34:42.964Z,94.25
2022-11-18T02:40:11.779Z,94.66
2022-11-18T02:45:19.489Z,94.98
2022-11-18T02:50:28.325Z,95.58
2022-11-18T02:55:35.256Z,95.93
2022-11-18T03:00:38.429Z,96.62
2022-11-18T03:05:47.369Z,97.10
2022-11-18T03:11:03.685Z,97.44
2022-11-18T03:16:14.799Z,97.63
2022-11-18T03:21:41.537Z,97.92
2022-11-18T03:26:52.938Z,98.06
2022-11-18T03:32:20.462Z,98.29
2022-11-18T03:37:25.970Z,98.50
2022-11-18T03:42:37.377Z,98.84
2022-11-18T03:47:45.438Z,98.87
2022-11-18T03:52:51.368Z,98.83
2022-11-18T03:58:06.358Z,98.71
2022-11-18T04:03:11.301Z,98.68
2022-11-18T04:08:23.111Z,98.64
2022-11-18T04:13:31.130Z,98.57
2022-11-18T04:18:34.442Z,98.52
2022-11-18T04:23:37.442Z,98.42
2022-11-18T04:28:40.659Z,98.22
2022-11-18T04:33:44.375Z,98.06
2022-11-18T04:38:47.986Z,97.96
2022-11-18T04:43:51.810Z,97.91
2022-11-18T04:48:55.120Z,97.97
2022-11-18T04:53:58.532Z,98.04
2022-11-18T04:59:02.375Z,98.18
2022-11-18T05:04:06.593Z,98.40
2022-11-18T05:09:10.310Z,98.72
2022-11-18T05:14:14.538Z,98.88
2022-11-18T05:19:18.030Z,98.49
2022-11-18T05:24:24.436Z,98.15
2022-11-18T05:29:27.745Z,98.07
2022-11-18T05:34:30.952Z,97.76
2022-11-18T05:39:34.570Z,97.49
2022-11-18T05:44:37.878Z,95.44
2022-11-18T05:49:41.087Z,95.11
2022-11-18T05:54:50.132Z,94.91
2022-11-18T05:59:53.237Z,93.38
2022-11-18T06:05:04.750Z,91.99
2022-11-18T06:10:08.824Z,91.57
2022-11-18T06:15:23.139Z,90.21
2022-11-18T06:20:27.472Z,88.69
2022-11-18T06:25:31.395Z,87.83
2022-11-18T06:30:34.499Z,87.84
2022-11-18T06:35:37.811Z,88.10
2022-11-18T06:40:45.117Z,88.32
2022-11-18T06:46:09.449Z,87.69
2022-11-18T06:51:13.341Z,87.59
2022-11-18T06:56:19.107Z,87.30
2022-11-18T07:01:25.638Z,87.27
2022-11-18T07:06:31.859Z,87.31
2022-11-18T07:11:35.564Z,87.66
2022-11-18T07:16:38.802Z,87.88
2022-11-18T07:21:42.862Z,87.93
2022-11-18T07:26:46.135Z,87.39
2022-11-18T07:31:49.352Z,87.29
2022-11-18T07:36:52.653Z,86.88
2022-11-18T07:41:56.679Z,86.90
2022-11-18T07:47:00.107Z,86.66
2022-11-18T07:52:03.406Z,86.27
2022-11-18T07:57:06.506Z,85.32
2022-11-18T08:02:13.610Z,85.06
2022-11-18T08:07:17.378Z,84.04
2022-11-18T08:12:20.534Z,83.11
2022-11-18T08:17:23.818Z,82.82
2022-11-18T08:22:27.057Z,82.24
2022-11-18T08:27:32.022Z,81.76
2022-11-18T08:32:35.732Z,81.92
2022-11-18T08:37:38.927Z,82.27
2022-11-18T08:42:42.544Z,82.51
2022-11-18T08:47:45.853Z,82.22
2022-11-18T08:52:49.166Z,83.03
2022-11-18T08:57:52.475Z,85.34
2022-11-18T09:02:55.582Z,87.23
2022-11-18T09:07:58.891Z,87.77
2022-11-18T09:13:18.424Z,87.03
2022-11-18T09:18:25.171Z,86.23
2022-11-18T09:23:28.380Z,86.22
2022-11-18T09:28:32.200Z,84.27
2022-11-18T09:33:36.985Z,82.65
2022-11-18T09:38:40.362Z,82.49
2022-11-18T09:43:49.708Z,82.65
2022-11-18T09:49:15.748Z,83.95
2022-11-18T09:54:28.960Z,85.53
2022-11-18T09:59:33.431Z,86.07
2022-11-18T10:04:37.765Z,85.02
2022-11-18T10:09:41.895Z,83.91
2022-11-18T10:15:18.557Z,82.88
2022-11-18T10:20:40.742Z,82.10
2022-11-18T10:25:44.774Z,80.87
2022-11-18T10:30:48.485Z,80.15
2022-11-18T10:36:08.381Z,80.12
2022-11-18T10:41:21.085Z,77.39
2022-11-18T10:46:31.533Z,76.58
2022-11-18T10:51:47.149Z,74.84
2022-11-18T10:56:58.380Z,73.77
2022-11-18T11:02:11.648Z,74.87
2022-11-18T11:07:16.631Z,73.97
2022-11-18T11:12:20.197Z,73.32
2022-11-18T11:17:39.133Z,72.50
2022-11-18T11:22:42.991Z,72.61
2022-11-18T11:28:24.598Z,73.88
2022-11-18T11:33:47.673Z,75.04
2022-11-18T11:39:05.091Z,76.15
2022-11-18T11:44:30.236Z,76.75
2022-11-18T11:49:58.325Z,76.91
2022-11-18T11:55:36.861Z,76.77
2022-11-18T12:00:47.139Z,76.99
2022-11-18T12:05:50.255Z,77.27
2022-11-18T12:11:27.545Z,77.49
2022-11-18T12:16:50.005Z,77.73
2022-11-18T12:21:56.081Z,77.57
2022-11-18T12:27:27.549Z,77.21
2022-11-18T12:32:30.556Z,76.75
2022-11-18T12:37:33.657Z,76.46
2022-11-18T12:43:03.285Z,76.25
2022-11-18T12:48:27.652Z,76.05
2022-11-18T12:53:45.027Z,75.75
2022-11-18T12:58:57.759Z,75.88
2022-11-18T13:04:11.615Z,75.99
2022-11-18T13:09:18.876Z,76.02
2022-11-18T13:14:49.980Z,76.43
2022-11-18T13:19:58.207Z,76.64
2022-11-18T13:25:01.335Z,76.76
2022-11-18T13:30:11.481Z,76.86
2022-11-18T13:35:24.784Z,76.63
2022-11-18T13:40:40.323Z,76.08
2022-11-18T13:45:44.555Z,74.80
2022-11-18T13:50:55.408Z,74.17
2022-11-18T13:56:05.781Z,73.82
2022-11-18T14:01:28.125Z,73.77
2022-11-18T14:06:34.043Z,73.63
2022-11-18T14:11:43.602Z,73.91
2022-11-18T14:16:47.116Z,74.22
2022-11-18T14:21:50.637Z,74.47
2022-11-18T14:26:54.044Z,74.68
2022-11-18T14:32:12.302Z,75.01
2022-11-18T14:37:16.077Z,75.29
2022-11-18T14:42:19.235Z,75.37
2022-11-18T14:47:27.765Z,75.46
2022-11-18T14:52:31.175Z,75.61
2022-11-18T14:57:34.696Z,75.76
2022-11-18T15:02:38.058Z,76.04
2022-11-18T15:07:41.432Z,76.41
2022-11-18T15:12:44.621Z,76.51
2022-11-18T15:17:52.625Z,76.61
2022-11-18T15:22:57.286Z,76.78
2022-11-18T15:28:00.498Z,76.82
2022-11-18T15:33:03.702Z,76.97
2022-11-18T15:38:07.217Z,77.26
2022-11-18T15:43:10.426Z,77.47
2022-11-18T15:48:13.982Z,77.51
2022-11-18T15:53:17.152Z,77.67
2022-11-18T15:58:20.601Z,77.80
2022-11-18T16:03:24.081Z,77.86
2022-11-18T16:08:27.387Z,78.37
2022-11-18T16:13:30.492Z,78.60
2022-11-18T16:18:39.350Z,79.42
2022-11-18T16:23:44.077Z,80.16
2022-11-18T16:28:47.290Z,80.76
2022-11-18T16:33:51.213Z,81.33
2022-11-18T16:38:55.138Z,82.19
2022-11-18T16:44:04.589Z,82.87
2022-11-18T16:49:12.830Z,83.27
2022-11-18T16:54:34.955Z,83.90
2022-11-18T16:59:38.996Z,84.66
2022-11-18T17:04:43.024Z,84.97
2022-11-18T17:09:46.228Z,85.19
2022-11-18T17:14:49.334Z,85.31
2022-11-18T17:19:52.439Z,85.34
2022-11-18T17:24:55.544Z,85.53
2022-11-18T17:29:58.774Z,85.56
2022-11-18T17:35:02.372Z,85.83
2022-11-18T17:40:07.976Z,85.94
2022-11-18T17:45:12.581Z,85.75
2022-11-18T17:50:17.263Z,85.77
2022-11-18T17:55:21.151Z,85.83
2022-11-18T18:00:25.068Z,85.76
2022-11-18T18:05:29.094Z,85.89
2022-11-18T18:10:32.301Z,86.19
2022-11-18T18:15:36.817Z,86.57
2022-11-18T18:20:40.148Z,86.93
2022-11-18T18:25:43.465Z,87.26
2022-11-18T18:30:46.770Z,87.21
2022-11-18T18:35:49.887Z,87.34
2022-11-18T18:40:54.217Z,87.78
2022-11-18T18:46:32.403Z,88.28
2022-11-18T18:51:39.032Z,88.92
2022-11-18T18:56:43.974Z,89.13
2022-11-18T19:01:47.645Z,89.47
2022-11-18T19:06:58.972Z,89.57
2022-11-18T19:12:23.050Z,89.65
2022-11-18T19:17:26.442Z,89.78
2022-11-18T19:22:31.912Z,89.97
2022-11-18T19:27:39.070Z,90.06
2022-11-18T19:32:42.883Z,90.20
2022-11-18T19:37:47.627Z,90.35
2022-11-18T19:42:51.348Z,90.67
2022-11-18T19:47:54.555Z,90.75
2022-11-18T19:52:58.684Z,90.99
2022-11-18T19:58:02.508Z,91.17
2022-11-18T20:03:06.634Z,91.37
2022-11-18T20:08:09.843Z,91.51
2022-11-18T20:13:14.550Z,91.72
2022-11-18T20:18:21.120Z,92.25
2022-11-18T20:23:24.795Z,92.46
2022-11-18T20:28:28.526Z,92.67
2022-11-18T20:33:39.199Z,92.98
2022-11-18T20:38:42.825Z,92.99
2022-11-18T20:43:48.315Z,92.97
2022-11-18T20:48:51.892Z,92.99
2022-11-18T20:53:58.203Z,93.11
2022-11-18T20:59:02.968Z,93.17
2022-11-18T21:04:06.287Z,93.14
2022-11-18T21:09:09.641Z,92.98
2022-11-18T21:14:26.759Z,93.17
2022-11-18T21:19:30.606Z,93.53
2022-11-18T21:24:35.551Z,93.70
2022-11-18T21:29:39.692Z,94.04
2022-11-18T21:34:42.994Z,94.09
2022-11-18T21:39:46.715Z,94.22
2022-11-18T21:44:49.916Z,94.42
2022-11-18T21:49:53.126Z,94.57
2022-11-18T21:54:57.051Z,94.74
2022-11-18T22:00:00.265Z,94.80
2022-11-18T22:05:07.866Z,94.99
2022-11-18T22:10:11.588Z,95.16
2022-11-18T22:15:15.513Z,95.36
2022-11-18T22:20:19.235Z,95.49
2022-11-18T22:25:22.441Z,95.64
2022-11-18T22:30:25.546Z,95.92
2022-11-18T22:35:29.268Z,95.98
2022-11-18T22:40:32.580Z,95.87
2022-11-18T22:45:36.035Z,95.83
2022-11-18T22:50:43.195Z,95.68
2022-11-18T22:55:46.710Z,95.51
2022-11-18T23:00:49.919Z,95.27
2022-11-18T23:05:53.023Z,95.21
2022-11-18T23:11:05.858Z,95.17
2022-11-18T23:16:09.378Z,95.12
2022-11-18T23:21:12.991Z,95.00
2022-11-18T23:26:16.608Z,94.98
2022-11-18T23:31:21.406Z,94.90
2022-11-18T23:36:25.867Z,94.85
2022-11-18T23:41:28.996Z,94.90
2022-11-18T23:46:32.613Z,95.04
2022-11-18T23:51:35.923Z,95.26
2022-11-18T23:56:39.337Z,95.33
